createdAt,value
2022-12-01T00:01:20.773Z,28.45
2022-12-01T00:03:48.035Z,31.95
2022-12-01T00:06:17.258Z,29.17
2022-12-01T00:09:04.456Z,30.80
2022-12-01T00:11:32.868Z,27.23
2022-12-01T00:14:01.716Z,29.45
2022-12-01T00:16:28.968Z,28.42
2022-12-01T00:18:56.411Z,25.60
2022-12-01T00:21:24.797Z,29.73
2022-12-01T00:23:54.600Z,28.17
2022-12-01T00:26:22.852Z,26.70
2022-12-01T00:28:58.074Z,28.60
2022-12-01T00:31:25.718Z,30.83
2022-12-01T00:33:53.106Z,29.75
2022-12-01T00:36:21.433Z,30.38
2022-12-01T00:38:52.815Z,28.85
2022-12-01T00:41:20.323Z,27.45
2022-12-01T00:43:47.499Z,26.17
2022-12-01T00:46:14.627Z,28.25
2022-12-01T00:48:41.973Z,28.13
2022-12-01T00:51:09.029Z,25.73
2022-12-01T00:53:35.986Z,29.27
2022-12-01T00:56:03.159Z,27.55
2022-12-01T00:58:30.129Z,30.30
2022-12-01T01:00:59.341Z,29.52
2022-12-01T01:03:27.274Z,27.70
2022-12-01T01:05:54.214Z,28.00
2022-12-01T01:08:21.330Z,27.42
2022-12-01T01:10:49.079Z,33.03
2022-12-01T01:13:17.163Z,27.17
2022-12-01T01:15:44.086Z,30.50
2022-12-01T01:18:12.254Z,27.10
2022-12-01T01:20:39.540Z,28.83
2022-12-01T01:23:07.243Z,26.63
2022-12-01T01:25:34.163Z,27.58
2022-12-01T01:28:01.222Z,26.42
2022-12-01T01:30:28.514Z,25.33
2022-12-01T01:32:55.617Z,31.50
2022-12-01T01:35:22.891Z,26.65
2022-12-01T01:37:51.124Z,28.63
2022-12-01T01:40:18.885Z,30.02
2022-12-01T01:42:46.527Z,25.95
2022-12-01T01:45:25.905Z,25.20
2022-12-01T01:47:56.071Z,25.48
2022-12-01T01:50:26.674Z,27.98
2022-12-01T01:53:08.110Z,27.02
2022-12-01T01:55:36.349Z,28.50
2022-12-01T01:58:08.621Z,27.02
2022-12-01T02:00:38.476Z,27.90
2022-12-01T02:03:05.477Z,29.38
2022-12-01T02:05:34.932Z,28.10
2022-12-01T02:08:03.781Z,29.45
2022-12-01T02:10:52.667Z,28.95
2022-12-01T02:13:33.817Z,28.67
2022-12-01T02:16:19.475Z,26.90
2022-12-01T02:19:10.657Z,30.30
2022-12-01T02:21:47.142Z,29.67
2022-12-01T02:24:14.013Z,29.05
2022-12-01T02:26:49.271Z,32.33
2022-12-01T02:29:43.868Z,27.00
2022-12-01T02:32:29.990Z,26.77
2022-12-01T02:35:13.028Z,26.80
2022-12-01T02:37:50.139Z,25.63
2022-12-01T02:40:20.002Z,27.02
2022-12-01T02:43:07.977Z,30.52
2022-12-01T02:45:43.823Z,30.20
2022-12-01T02:48:24.981Z,29.08
2022-12-01T02:50:53.748Z,28.05
2022-12-01T02:53:20.994Z,28.50
2022-12-01T02:55:53.224Z,29.30
2022-12-01T02:58:21.205Z,29.95
2022-12-01T03:01:08.471Z,26.92
2022-12-01T03:03:46.233Z,29.15
2022-12-01T03:06:31.877Z,27.10
2022-12-01T03:09:10.865Z,30.42
2022-12-01T03:11:51.736Z,30.00
2022-12-01T03:14:26.710Z,28.35
2022-12-01T03:16:54.688Z,27.75
2022-12-01T03:19:26.611Z,28.92
2022-12-01T03:22:05.248Z,27.70
2022-12-01T03:24:34.353Z,28.95
2022-12-01T03:27:04.125Z,29.88
2022-12-01T03:29:37.053Z,30.30
2022-12-01T03:32:10.576Z,28.80
2022-12-01T03:34:43.700Z,31.05
2022-12-01T03:37:25.232Z,31.88
2022-12-01T03:40:00.476Z,32.80
2022-12-01T03:42:40.684Z,29.20
2022-12-01T03:45:18.173Z,29.38
2022-12-01T03:47:46.138Z,29.33
2022-12-01T03:50:14.402Z,29.90
2022-12-01T03:52:48.719Z,28.50
2022-12-01T03:55:31.478Z,29.08
2022-12-01T03:58:15.128Z,31.13
2022-12-01T04:00:43.979Z,29.58
2022-12-01T04:03:18.825Z,27.35
2022-12-01T04:05:46.518Z,31.58
2022-12-01T04:08:13.462Z,33.33
2022-12-01T04:10:40.350Z,31.38
2022-12-01T04:13:12.266Z,33.33
2022-12-01T04:15:39.283Z,33.80
2022-12-01T04:18:06.239Z,36.45
2022-12-01T04:20:33.236Z,30.65
2022-12-01T04:23:00.241Z,32.15
2022-12-01T04:25:27.244Z,30.52
2022-12-01T04:27:54.104Z,34.92
2022-12-01T04:30:21.067Z,32.22
2022-12-01T04:32:47.964Z,30.15
2022-12-01T04:35:14.972Z,28.38
2022-12-01T04:37:42.062Z,34.00
2022-12-01T04:40:10.113Z,29.77
2022-12-01T04:42:37.054Z,30.25
2022-12-01T04:45:04.396Z,30.58
2022-12-01T04:47:31.412Z,31.38
2022-12-01T04:49:58.474Z,30.05
2022-12-01T04:52:26.695Z,31.88
2022-12-01T04:54:56.359Z,32.95
2022-12-01T04:57:23.278Z,32.35
2022-12-01T04:59:50.364Z,33.90
2022-12-01T05:02:17.775Z,34.72
2022-12-01T05:04:48.209Z,33.95
2022-12-01T05:07:15.242Z,36.67
2022-12-01T05:09:42.390Z,34.53
2022-12-01T05:12:10.263Z,37.70
2022-12-01T05:14:37.185Z,64.60
2022-12-01T05:17:04.152Z,36.63
2022-12-01T05:19:49.716Z,34.67
2022-12-01T05:22:16.850Z,35.60
2022-12-01T05:24:43.729Z,33.78
2022-12-01T05:27:10.810Z,35.28
2022-12-01T05:29:37.746Z,33.90
2022-12-01T05:32:05.096Z,33.00
2022-12-01T05:34:32.066Z,36.13
2022-12-01T05:36:59.053Z,33.95
2022-12-01T05:39:26.009Z,34.53
2022-12-01T05:41:54.111Z,36.78
2022-12-01T05:44:21.060Z,36.72
2022-12-01T05:46:48.088Z,34.58
2022-12-01T05:49:15.217Z,38.95
2022-12-01T05:51:43.975Z,35.33
2022-12-01T05:54:11.032Z,36.45
2022-12-01T05:56:38.087Z,33.80
2022-12-01T05:59:05.059Z,44.95
2022-12-01T06:01:32.022Z,36.50
2022-12-01T06:03:59.145Z,35.35
2022-12-01T06:06:26.218Z,33.45
2022-12-01T06:08:53.106Z,33.58
2022-12-01T06:11:20.146Z,33.00
2022-12-01T06:13:47.276Z,33.10
2022-12-01T06:16:14.360Z,32.80
2022-12-01T06:18:41.375Z,34.08
2022-12-01T06:21:08.339Z,32.95
2022-12-01T06:23:36.101Z,33.10
2022-12-01T06:26:03.613Z,37.25
2022-12-01T06:28:30.689Z,34.38
2022-12-01T06:31:02.776Z,40.60
2022-12-01T06:33:31.738Z,35.80
2022-12-01T06:36:04.409Z,31.80
2022-12-01T06:38:33.609Z,31.67
2022-12-01T06:41:01.133Z,34.80
2022-12-01T06:43:28.666Z,39.95
2022-12-01T06:46:01.185Z,36.78
2022-12-01T06:48:29.673Z,36.50
2022-12-01T06:51:01.354Z,32.63
2022-12-01T06:53:29.265Z,31.65
2022-12-01T06:56:06.178Z,34.17
2022-12-01T06:58:34.980Z,35.40
2022-12-01T07:01:09.291Z,37.70
2022-12-01T07:03:36.425Z,44.88
2022-12-01T07:06:04.054Z,38.95
2022-12-01T07:08:32.427Z,38.38
2022-12-01T07:11:05.387Z,36.30
2022-12-01T07:13:34.025Z,38.47
2022-12-01T07:16:05.196Z,35.58
2022-12-01T07:18:33.559Z,35.95
2022-12-01T07:21:01.680Z,36.15
2022-12-01T07:23:29.156Z,35.60
2022-12-01T07:26:04.792Z,34.42
2022-12-01T07:28:32.694Z,40.10
2022-12-01T07:31:08.353Z,36.80
2022-12-01T07:33:36.142Z,31.63
2022-12-01T07:36:04.608Z,38.28
2022-12-01T07:38:32.840Z,32.97
2022-12-01T07:41:14.134Z,34.88
2022-12-01T07:43:41.782Z,31.77
2022-12-01T07:46:17.239Z,32.03
2022-12-01T07:48:49.076Z,32.38
2022-12-01T07:51:17.054Z,35.10
2022-12-01T07:53:45.965Z,32.03
2022-12-01T07:56:13.491Z,33.78
2022-12-01T07:58:40.650Z,32.33
2022-12-01T08:01:09.062Z,33.13
2022-12-01T08:03:36.851Z,34.33
2022-12-01T08:06:04.846Z,31.00
2022-12-01T08:08:33.918Z,32.78
2022-12-01T08:11:04.872Z,32.03
2022-12-01T08:13:32.334Z,36.42
2022-12-01T08:15:59.321Z,31.63
2022-12-01T08:18:26.364Z,33.15
2022-12-01T08:20:58.430Z,30.80
2022-12-01T08:23:25.504Z,32.67
2022-12-01T08:25:55.767Z,31.88
2022-12-01T08:28:22.878Z,32.38
2022-12-01T08:30:50.016Z,30.52
2022-12-01T08:33:17.063Z,33.85
2022-12-01T08:35:44.083Z,35.05
2022-12-01T08:38:11.434Z,31.75
2022-12-01T08:40:38.596Z,37.05
2022-12-01T08:43:05.846Z,31.52
2022-12-01T08:45:32.953Z,30.63
2022-12-01T08:48:00.148Z,30.25
2022-12-01T08:50:28.163Z,31.30
2022-12-01T08:52:55.367Z,32.25
2022-12-01T08:55:22.807Z,30.00
2022-12-01T08:57:49.797Z,30.83
2022-12-01T09:00:16.999Z,29.67
2022-12-01T09:02:43.887Z,30.80
2022-12-01T09:05:11.051Z,34.03
2022-12-01T09:07:38.003Z,28.58
2022-12-01T09:10:05.901Z,29.08
2022-12-01T09:12:33.086Z,29.02
2022-12-01T09:15:00.105Z,30.05
2022-12-01T09:17:28.575Z,29.88
2022-12-01T09:19:55.654Z,31.42
2022-12-01T09:22:22.926Z,29.38
2022-12-01T09:24:49.891Z,29.60
2022-12-01T09:27:16.807Z,29.77
2022-12-01T09:29:43.792Z,31.65
2022-12-01T09:32:10.818Z,31.60
2022-12-01T09:34:37.794Z,34.38
2022-12-01T09:37:05.341Z,27.05
2022-12-01T09:39:32.325Z,31.55
2022-12-01T09:42:08.848Z,26.60
2022-12-01T09:44:45.476Z,31.23
2022-12-01T09:47:21.271Z,28.83
2022-12-01T09:50:12.684Z,29.50
2022-12-01T09:52:57.832Z,27.08
2022-12-01T09:55:26.515Z,33.08
2022-12-01T09:57:58.900Z,26.75
2022-12-01T10:00:30.461Z,26.65
2022-12-01T10:03:06.978Z,29.90
2022-12-01T10:06:18.592Z,25.65
2022-12-01T10:08:39.757Z,26.10
2022-12-01T10:11:37.534Z,27.10
2022-12-01T10:14:06.633Z,30.23
2022-12-01T10:16:38.939Z,30.33
2022-12-01T10:19:15.803Z,27.88
2022-12-01T10:21:58.054Z,27.45
2022-12-01T10:24:40.845Z,28.67
2022-12-01T10:27:26.737Z,26.95
2022-12-01T10:30:05.683Z,29.27
2022-12-01T10:32:43.825Z,27.17
2022-12-01T10:35:17.595Z,24.48
2022-12-01T10:37:46.420Z,24.35
2022-12-01T10:40:15.763Z,28.40
2022-12-01T10:42:48.763Z,31.15
2022-12-01T10:48:15.864Z,22.73
2022-12-01T10:50:44.056Z,26.80
2022-12-01T10:53:23.259Z,22.65
2022-12-01T10:56:02.973Z,27.65
2022-12-01T10:58:33.957Z,25.60
2022-12-01T11:01:04.926Z,26.17
2022-12-01T11:03:35.236Z,26.50
2022-12-01T11:06:05.090Z,21.42
2022-12-01T11:08:46.423Z,27.15
2022-12-01T11:11:30.745Z,24.70
2022-12-01T11:14:01.525Z,23.10
2022-12-01T11:16:47.717Z,24.02
2022-12-01T11:19:26.811Z,24.92
2022-12-01T11:21:58.386Z,25.05
2022-12-01T11:24:29.636Z,21.75
2022-12-01T11:26:58.970Z,25.20
2022-12-01T11:29:32.130Z,24.33
2022-12-01T11:32:01.350Z,24.17
2022-12-01T11:34:31.676Z,23.70
2022-12-01T11:37:02.958Z,24.77
2022-12-01T11:39:41.536Z,21.77
2022-12-01T11:42:28.705Z,21.05
2022-12-01T11:45:20.521Z,23.88
2022-12-01T11:48:17.807Z,24.65
2022-12-01T11:51:01.883Z,25.80
2022-12-01T11:53:29.057Z,25.98
2022-12-01T11:56:23.873Z,25.27
2022-12-01T11:58:57.812Z,29.33
2022-12-01T12:01:46.777Z,28.17
2022-12-01T12:04:32.123Z,30.40
2022-12-01T12:07:24.821Z,24.13
2022-12-01T12:09:52.003Z,25.05
2022-12-01T12:12:38.032Z,22.80
2022-12-01T12:15:32.657Z,25.02
2022-12-01T12:18:05.903Z,25.20
2022-12-01T12:20:38.757Z,27.10
2022-12-01T12:23:11.808Z,25.52
2022-12-01T12:25:48.176Z,26.15
2022-12-01T12:28:43.166Z,26.95
2022-12-01T12:31:28.877Z,25.25
2022-12-01T12:34:05.131Z,27.38
2022-12-01T12:36:41.240Z,25.00
2022-12-01T12:39:36.750Z,26.40
2022-12-01T12:42:15.056Z,23.98
2022-12-01T12:45:02.525Z,25.25
2022-12-01T12:47:50.164Z,26.58
2022-12-01T12:50:30.615Z,28.45
2022-12-01T19:50:53.437Z,63.42
2022-12-01T19:53:22.422Z,65.93
2022-12-01T19:55:50.394Z,64.55
2022-12-01T19:58:17.876Z,68.07
2022-12-01T20:00:46.666Z,67.10
2022-12-01T20:03:14.284Z,72.05
2022-12-01T20:05:41.874Z,66.15
2022-12-01T20:08:13.651Z,61.47
2022-12-01T20:10:48.789Z,60.72
2022-12-01T20:13:16.354Z,59.42
2022-12-01T20:15:44.440Z,56.17
2022-12-01T20:18:15.288Z,56.30
2022-12-01T20:20:42.841Z,58.10
2022-12-01T20:23:10.403Z,53.22
2022-12-01T20:25:39.414Z,53.45
2022-12-01T20:28:06.519Z,56.78
2022-12-01T20:30:34.870Z,59.55
2022-12-01T20:33:04.064Z,55.42
2022-12-01T20:35:34.000Z,58.97
2022-12-01T20:38:01.216Z,49.50
2022-12-01T20:40:28.716Z,52.55
2022-12-01T20:42:56.182Z,50.00
2022-12-01T20:45:24.086Z,54.03
2022-12-01T20:47:51.545Z,62.85
2022-12-01T20:50:22.134Z,54.35
2022-12-01T20:52:49.805Z,49.15
2022-12-01T20:55:17.385Z,49.80
2022-12-01T20:57:44.678Z,50.92
2022-12-01T21:00:14.045Z,52.05
2022-12-01T21:02:41.134Z,49.55
2022-12-01T21:05:08.559Z,46.13
2022-12-01T21:07:36.174Z,50.75
2022-12-01T21:10:04.737Z,46.38
2022-12-01T21:12:51.238Z,50.00
2022-12-01T21:15:25.788Z,47.78
2022-12-01T21:18:00.885Z,53.60
2022-12-01T21:20:57.555Z,51.78
2022-12-01T21:23:27.228Z,48.47
2022-12-01T21:25:55.472Z,47.97
2022-12-01T21:28:24.872Z,47.15
2022-12-01T21:31:02.172Z,49.58
2022-12-01T21:33:34.502Z,46.45
2022-12-01T21:36:02.827Z,47.30
2022-12-01T21:38:32.076Z,45.67
2022-12-01T21:40:59.194Z,49.45
2022-12-01T21:43:26.433Z,51.55
2022-12-01T21:45:58.205Z,51.47
2022-12-01T21:48:25.152Z,51.03
2022-12-01T21:51:10.504Z,50.50
2022-12-01T21:53:39.304Z,51.25
2022-12-01T21:56:15.311Z,55.25
2022-12-01T21:58:44.229Z,57.55
2022-12-01T22:01:21.164Z,55.95
2022-12-01T22:03:48.501Z,61.35
2022-12-01T22:06:43.463Z,62.83
2022-12-01T22:09:22.252Z,62.75
2022-12-01T22:12:08.627Z,59.17
2022-12-01T22:14:36.922Z,63.28
2022-12-01T22:17:06.885Z,66.32
2022-12-01T22:19:37.824Z,76.95
2022-12-01T22:22:27.338Z,77.43
2022-12-01T22:25:00.320Z,64.70
2022-12-01T22:27:33.050Z,71.82
2022-12-01T22:30:10.510Z,74.87
2022-12-01T22:32:59.510Z,69.20
2022-12-01T22:35:46.424Z,69.57
2022-12-01T22:38:49.479Z,67.32
2022-12-01T22:41:19.510Z,63.97
2022-12-01T22:43:55.681Z,68.57
2022-12-01T22:46:25.992Z,71.05
2022-12-01T22:48:55.923Z,61.83
2022-12-01T22:51:27.701Z,63.35
2022-12-01T22:54:00.574Z,60.08
2022-12-01T22:56:32.837Z,63.20
2022-12-01T22:58:59.938Z,57.72
2022-12-01T23:01:30.480Z,60.97
2022-12-01T23:04:15.635Z,62.92
2022-12-01T23:06:54.597Z,69.53
2022-12-01T23:09:23.930Z,69.70
2022-12-01T23:12:05.945Z,81.68
2022-12-01T23:14:33.738Z,70.75
2022-12-01T23:17:12.528Z,75.18
2022-12-01T23:19:39.486Z,73.80
2022-12-01T23:22:06.450Z,76.45
2022-12-01T23:24:34.319Z,68.60
2022-12-01T23:27:01.988Z,62.85
2022-12-01T23:29:30.581Z,57.88
2022-12-01T23:31:57.754Z,58.60
2022-12-01T23:34:24.921Z,59.20
2022-12-01T23:36:52.018Z,53.70
2022-12-01T23:39:23.473Z,55.67
2022-12-01T23:41:51.565Z,52.83
2022-12-01T23:44:45.757Z,53.20
2022-12-01T23:47:19.849Z,54.38
2022-12-01T23:49:48.203Z,54.72
2022-12-01T23:52:20.035Z,53.53
2022-12-01T23:54:47.213Z,48.45
2022-12-01T23:57:23.752Z,50.60
2022-12-01T23:59:55.232Z,50.92
